createdAt,value
2023-11-18T00:00:58.519Z,3.95
2023-11-18T00:01:58.537Z,3.94
2023-11-18T00:02:58.478Z,3.92
2023-11-18T00:03:58.386Z,3.96
2023-11-18T00:04:58.353Z,3.92
2023-11-18T00:05:58.275Z,3.99
2023-11-18T00:06:58.231Z,3.96
2023-11-18T00:07:58.247Z,3.99
2023-11-18T00:08:58.133Z,4.04
2023-11-18T00:09:58.089Z,3.96
2023-11-18T00:10:58.073Z,3.94
2023-11-18T00:11:57.989Z,4.04
2023-11-18T00:12:57.944Z,3.96
2023-11-18T00:13:57.944Z,4.02
2023-11-18T00:14:57.985Z,3.96
2023-11-18T00:15:57.839Z,3.96
2023-11-18T00:16:57.983Z,3.96
2023-11-18T00:17:57.725Z,3.91
2023-11-18T00:18:57.659Z,3.92
2023-11-18T00:19:57.619Z,3.89
2023-11-18T00:20:57.569Z,3.92
2023-11-18T00:21:57.516Z,4.03
2023-11-18T00:22:57.582Z,4.00
2023-11-18T00:23:57.430Z,4.06
2023-11-18T00:24:57.385Z,4.04
2023-11-18T00:25:57.363Z,4.03
2023-11-18T00:26:57.283Z,4.09
2023-11-18T00:27:57.232Z,4.09
2023-11-18T00:28:57.207Z,4.12
2023-11-18T00:29:57.204Z,4.09
2023-11-18T00:30:57.148Z,4.10
2023-11-18T00:31:57.132Z,4.13
2023-11-18T00:32:57.138Z,4.09
2023-11-18T00:33:56.948Z,4.09
2023-11-18T00:34:56.953Z,4.14
2023-11-18T00:35:56.851Z,4.10
2023-11-18T00:36:56.818Z,4.10
2023-11-18T00:37:56.764Z,4.18
2023-11-18T00:38:56.715Z,4.07
2023-11-18T00:39:56.663Z,4.18
2023-11-18T00:40:56.666Z,4.12
2023-11-18T00:41:56.569Z,4.13
2023-11-18T00:42:56.529Z,4.13
2023-11-18T00:43:56.539Z,4.18
2023-11-18T00:44:56.502Z,4.22
2023-11-18T00:45:56.403Z,4.07
2023-11-18T00:46:56.398Z,4.18
2023-11-18T00:47:56.324Z,4.18
2023-11-18T00:48:56.279Z,4.16
2023-11-18T00:49:56.372Z,4.20
2023-11-18T00:50:56.147Z,4.18
2023-11-18T00:54:41.705Z,4.22
2023-11-18T00:55:41.686Z,4.30
2023-11-18T00:56:41.616Z,4.24
2023-11-18T00:57:41.560Z,4.28
2023-11-18T00:58:41.828Z,4.36
2023-11-18T00:59:41.464Z,4.28
2023-11-18T01:00:41.422Z,4.36
2023-11-18T01:01:41.472Z,4.40
2023-11-18T01:02:41.341Z,4.43
2023-11-18T01:03:41.296Z,4.43
2023-11-18T01:04:41.249Z,4.46
2023-11-18T01:05:41.185Z,4.53
2023-11-18T01:06:41.139Z,4.43
2023-11-18T01:07:41.105Z,4.48
2023-11-18T01:08:41.085Z,4.56
2023-11-18T01:09:40.991Z,4.60
2023-11-18T01:10:41.009Z,4.56
2023-11-18T01:11:40.900Z,4.61
2023-11-18T01:12:44.097Z,4.67
2023-11-18T01:13:40.828Z,4.67
2023-11-18T01:14:41.026Z,4.67
2023-11-18T01:15:40.715Z,4.76
2023-11-18T01:16:40.696Z,4.79
2023-11-18T01:17:40.701Z,4.83
2023-11-18T01:18:40.603Z,4.82
2023-11-18T01:19:40.681Z,4.86
2023-11-18T01:20:40.475Z,4.84
2023-11-18T01:21:40.428Z,4.89
2023-11-18T01:22:40.483Z,4.86
2023-11-18T01:23:40.332Z,4.83
2023-11-18T01:24:40.292Z,4.97
2023-11-18T01:25:40.269Z,4.90
2023-11-18T01:26:40.213Z,4.98
2023-11-18T01:27:40.142Z,5.00
2023-11-18T01:28:40.122Z,5.00
2023-11-18T01:29:40.060Z,5.05
2023-11-18T01:30:40.023Z,5.10
2023-11-18T01:31:47.507Z,5.12
2023-11-18T01:32:39.982Z,5.02
2023-11-18T01:33:39.885Z,5.10
2023-11-18T01:34:39.879Z,5.16
2023-11-18T01:35:39.781Z,5.15
2023-11-18T01:36:39.725Z,5.16
2023-11-18T01:37:39.822Z,5.19
2023-11-18T01:38:39.633Z,5.18
2023-11-18T01:39:39.581Z,5.13
2023-11-18T01:40:39.570Z,5.23
2023-11-18T01:41:39.491Z,5.22
2023-11-18T01:42:39.463Z,5.19
2023-11-18T01:43:39.407Z,5.15
2023-11-18T01:44:39.355Z,5.12
2023-11-18T01:45:39.331Z,5.19
2023-11-18T01:46:39.285Z,5.19
2023-11-18T01:47:39.230Z,5.20
2023-11-18T01:48:39.171Z,5.23
2023-11-18T01:49:39.287Z,5.16
2023-11-18T01:50:39.076Z,5.25
2023-11-18T01:51:39.021Z,5.26
2023-11-18T01:52:38.995Z,5.19
2023-11-18T01:53:38.947Z,5.20
2023-11-18T01:54:39.051Z,5.22
2023-11-18T01:55:38.854Z,5.16
2023-11-18T01:56:38.790Z,5.19
2023-11-18T01:57:38.752Z,5.16
2023-11-18T01:58:38.730Z,5.15
2023-11-18T01:59:38.654Z,5.22
2023-11-18T02:00:38.602Z,5.08
2023-11-18T02:01:38.627Z,5.15
2023-11-18T02:02:38.629Z,5.10
2023-11-18T02:03:38.551Z,5.13
2023-11-18T02:04:38.651Z,5.12
2023-11-18T02:05:38.391Z,5.12
2023-11-18T02:06:38.323Z,5.05
2023-11-18T02:07:38.447Z,5.08
2023-11-18T02:08:38.235Z,5.05
2023-11-18T02:09:38.189Z,5.07
2023-11-18T02:10:38.213Z,5.02
2023-11-18T02:11:38.082Z,4.98
2023-11-18T02:12:38.043Z,4.98
2023-11-18T02:13:38.011Z,5.02
2023-11-18T02:14:37.944Z,4.97
2023-11-18T02:15:37.899Z,4.92
2023-11-18T02:16:37.864Z,4.94
2023-11-18T02:17:37.893Z,4.97
2023-11-18T02:18:37.848Z,4.95
2023-11-18T02:19:37.741Z,4.90
2023-11-18T02:20:37.664Z,4.89
2023-11-18T02:21:37.635Z,5.00
2023-11-18T02:22:37.593Z,4.90
2023-11-18T02:23:37.519Z,4.98
2023-11-18T02:24:37.476Z,4.95
2023-11-18T02:25:37.465Z,4.84
2023-11-18T02:26:37.384Z,4.97
2023-11-18T02:27:37.337Z,4.95
2023-11-18T02:28:37.317Z,4.79
2023-11-18T02:29:37.358Z,5.00
2023-11-18T02:30:37.195Z,4.83
2023-11-18T02:31:37.186Z,4.82
2023-11-18T02:32:37.179Z,4.98
2023-11-18T02:33:37.129Z,4.90
2023-11-18T02:34:37.049Z,4.94
2023-11-18T02:35:36.956Z,4.97
2023-11-18T02:36:36.915Z,5.01
2023-11-18T02:37:36.941Z,4.97
2023-11-18T02:38:39.573Z,4.92
2023-11-18T02:39:36.793Z,5.01
2023-11-18T02:40:36.964Z,4.97
2023-11-18T02:41:36.678Z,4.98
2023-11-18T02:42:36.648Z,5.00
2023-11-18T02:43:36.654Z,4.98
2023-11-18T02:44:36.536Z,4.98
2023-11-18T02:45:36.497Z,5.10
2023-11-18T02:46:36.524Z,5.02
2023-11-18T02:47:36.410Z,5.05
2023-11-18T02:48:36.349Z,5.10
2023-11-18T02:49:36.465Z,5.12
2023-11-18T02:50:36.275Z,5.12
2023-11-18T02:51:36.225Z,5.12
2023-11-18T02:52:36.194Z,5.13
2023-11-18T02:53:36.187Z,5.15
2023-11-18T02:54:36.072Z,5.13
2023-11-18T02:55:36.044Z,5.22
2023-11-18T02:56:35.978Z,5.23
2023-11-18T02:57:35.924Z,5.22
2023-11-18T02:58:35.912Z,5.26
2023-11-18T02:59:35.839Z,5.20
2023-11-18T03:00:35.798Z,5.23
2023-11-18T03:01:35.839Z,5.25
2023-11-18T03:02:35.754Z,5.29
2023-11-18T03:03:35.660Z,5.40
2023-11-18T03:04:35.622Z,5.36
2023-11-18T03:05:35.581Z,5.40
2023-11-18T03:06:35.518Z,5.28
2023-11-18T03:07:35.528Z,5.37
2023-11-18T03:08:35.417Z,5.41
2023-11-18T03:09:35.379Z,5.41
2023-11-18T03:10:35.346Z,5.38
2023-11-18T03:11:35.273Z,5.37
2023-11-18T03:12:35.230Z,5.47
2023-11-18T03:13:35.205Z,5.47
2023-11-18T03:14:35.141Z,5.46
2023-11-18T03:15:35.100Z,5.46
2023-11-18T03:16:35.160Z,5.54
2023-11-18T03:17:35.003Z,5.52
2023-11-18T03:18:34.951Z,5.52
2023-11-18T03:19:34.923Z,5.55
2023-11-18T03:20:34.852Z,5.54
2023-11-18T03:21:34.807Z,5.52
2023-11-18T03:22:34.797Z,5.52
2023-11-18T03:23:34.709Z,5.61
2023-11-18T03:24:34.661Z,5.58
2023-11-18T03:25:34.685Z,5.59
2023-11-18T03:26:34.568Z,5.55
2023-11-18T03:27:34.518Z,5.59
2023-11-18T03:28:34.511Z,5.65
2023-11-18T03:29:34.434Z,5.56
2023-11-18T03:30:34.385Z,5.61
2023-11-18T03:31:34.350Z,5.59
2023-11-18T03:32:34.350Z,5.67
2023-11-18T03:33:34.375Z,5.61
2023-11-18T03:34:34.273Z,5.65
2023-11-18T03:35:34.358Z,5.62
2023-11-18T03:36:34.102Z,5.62
2023-11-18T03:37:34.079Z,5.67
2023-11-18T03:38:34.006Z,5.58
2023-11-18T03:39:33.968Z,5.64
2023-11-18T03:40:33.991Z,5.65
2023-11-18T03:41:33.905Z,5.61
2023-11-18T03:42:33.823Z,5.67
2023-11-18T03:43:33.845Z,5.58
2023-11-18T03:44:33.726Z,5.58
2023-11-18T03:45:33.679Z,5.67
2023-11-18T03:46:33.722Z,5.61
2023-11-18T03:47:33.588Z,5.64
2023-11-18T03:48:33.541Z,5.62
2023-11-18T03:49:33.507Z,5.59
2023-11-18T03:50:33.451Z,5.61
2023-11-18T03:51:33.396Z,5.65
2023-11-18T03:52:33.403Z,5.58
2023-11-18T03:53:33.311Z,5.64
2023-11-18T03:54:33.461Z,5.59
2023-11-18T03:55:33.246Z,5.62
2023-11-18T03:56:33.163Z,5.62
2023-11-18T03:57:33.145Z,5.70
2023-11-18T03:58:33.121Z,5.67
2023-11-18T03:59:33.036Z,5.72
2023-11-18T04:00:32.979Z,5.61
2023-11-18T04:01:33.058Z,5.76
2023-11-18T04:02:32.994Z,5.73
2023-11-18T04:03:32.966Z,5.62
2023-11-18T04:04:32.842Z,5.61
2023-11-18T04:05:34.310Z,5.67
2023-11-18T04:06:32.725Z,5.61
2023-11-18T04:07:32.760Z,5.73
2023-11-18T04:08:32.606Z,5.69
2023-11-18T04:09:32.559Z,5.72
2023-11-18T04:11:32.465Z,5.70
2023-11-18T04:12:32.416Z,5.65
2023-11-18T04:13:32.433Z,5.72
2023-11-18T04:14:32.370Z,5.73
2023-11-18T04:15:32.293Z,5.65
2023-11-18T04:16:32.249Z,5.73
2023-11-18T04:17:32.248Z,5.62
2023-11-18T04:18:32.135Z,5.69
2023-11-18T04:19:32.104Z,5.74
2023-11-18T04:20:32.048Z,5.62
2023-11-18T04:21:32.009Z,5.65
2023-11-18T04:22:32.055Z,5.64
2023-11-18T04:23:31.911Z,5.73
2023-11-18T04:24:31.891Z,5.67
2023-11-18T04:26:24.204Z,5.69
2023-11-18T04:27:24.169Z,5.69
2023-11-18T04:28:24.113Z,5.76
2023-11-18T04:29:24.086Z,5.70
2023-11-18T04:30:24.017Z,5.72
2023-11-18T04:31:23.966Z,5.72
2023-11-18T04:32:23.947Z,5.73
2023-11-18T04:33:23.876Z,5.76
2023-11-18T04:34:23.835Z,5.73
2023-11-18T04:35:23.813Z,5.70
2023-11-18T04:36:23.733Z,5.80
2023-11-18T04:37:23.687Z,5.77
2023-11-18T04:38:23.655Z,5.73
2023-11-18T04:39:23.619Z,5.72
2023-11-18T04:40:23.550Z,5.70
2023-11-18T04:41:23.499Z,5.67
2023-11-18T04:42:23.455Z,5.70
2023-11-18T04:43:30.784Z,5.67
2023-11-18T04:44:23.403Z,5.76
2023-11-18T04:45:23.341Z,5.69
2023-11-18T04:47:23.285Z,5.69
2023-11-18T04:48:23.267Z,5.72
2023-11-18T04:49:23.151Z,5.73
2023-11-18T04:50:23.088Z,5.79
2023-11-18T04:51:23.034Z,5.79
2023-11-18T04:52:23.010Z,5.65
2023-11-18T04:53:22.948Z,5.73
2023-11-18T04:54:22.911Z,5.74
2023-11-18T04:55:22.853Z,5.65
2023-11-18T04:56:22.800Z,5.67
2023-11-18T05:00:03.382Z,5.69
2023-11-18T05:01:03.330Z,5.67
2023-11-18T05:02:03.318Z,5.65
2023-11-18T05:03:03.288Z,5.67
2023-11-18T05:04:04.608Z,5.77
2023-11-18T05:05:03.180Z,5.65
2023-11-18T05:06:03.086Z,5.61
2023-11-18T05:07:03.038Z,5.67
2023-11-18T05:08:03.022Z,5.70
2023-11-18T05:09:02.985Z,5.69
2023-11-18T05:10:02.901Z,5.65
2023-11-18T05:11:02.931Z,5.73
2023-11-18T05:12:02.803Z,5.77
2023-11-18T05:13:02.751Z,5.70
2023-11-18T05:14:02.774Z,5.72
2023-11-18T05:15:02.688Z,5.73
2023-11-18T05:16:02.629Z,5.74
2023-11-18T05:17:02.629Z,5.74
2023-11-18T05:18:02.547Z,5.76
2023-11-18T05:19:02.476Z,5.76
2023-11-18T05:20:02.451Z,5.76
2023-11-18T05:21:02.383Z,5.76
2023-11-18T05:22:02.333Z,5.72
2023-11-18T05:23:02.362Z,5.80
2023-11-18T05:24:02.240Z,5.81
2023-11-18T05:25:02.198Z,5.80
2023-11-18T05:26:02.235Z,5.74
2023-11-18T05:27:02.099Z,5.80
2023-11-18T05:28:02.051Z,5.81
2023-11-18T05:29:02.038Z,5.84
2023-11-18T05:30:01.961Z,5.80
2023-11-18T05:31:01.990Z,5.87
2023-11-18T05:32:01.944Z,5.81
2023-11-18T05:33:01.928Z,5.83
2023-11-18T05:34:01.767Z,5.90
2023-11-18T05:35:01.799Z,5.92
2023-11-18T05:36:01.677Z,5.87
2023-11-18T05:37:01.630Z,5.90
2023-11-18T05:38:01.628Z,5.91
2023-11-18T05:39:01.533Z,5.90
2023-11-18T05:40:01.494Z,5.91
2023-11-18T05:41:01.514Z,5.84
2023-11-18T05:42:01.402Z,5.94
2023-11-18T05:43:01.364Z,5.84
2023-11-18T05:44:01.321Z,5.81
2023-11-18T05:45:01.255Z,5.87
2023-11-18T05:46:01.233Z,5.91
2023-11-18T05:47:01.232Z,5.97
2023-11-18T05:48:01.146Z,5.94
2023-11-18T05:49:01.099Z,5.91
2023-11-18T05:51:28.445Z,6.05
2023-11-18T05:52:28.393Z,6.05
2023-11-18T05:53:34.266Z,6.05
2023-11-18T05:54:28.307Z,6.02
2023-11-18T05:55:28.256Z,6.02
2023-11-18T05:56:28.208Z,5.94
2023-11-18T05:57:28.161Z,6.01
2023-11-18T05:58:28.121Z,6.01
2023-11-18T05:59:28.093Z,5.97
2023-11-18T06:00:33.512Z,6.07
2023-11-18T06:01:28.001Z,6.07
2023-11-18T06:03:15.349Z,6.07
2023-11-18T06:05:07.784Z,6.12
2023-11-18T06:06:07.616Z,6.05
2023-11-18T06:07:07.571Z,6.10
2023-11-18T06:08:07.541Z,6.01
2023-11-18T06:09:07.472Z,6.09
2023-11-18T06:10:07.425Z,6.16
2023-11-18T06:11:59.761Z,6.09
2023-11-18T06:12:59.714Z,6.12
2023-11-18T06:13:59.718Z,6.12
2023-11-18T06:14:59.631Z,6.17
2023-11-18T06:15:59.574Z,6.13
2023-11-18T06:16:59.571Z,6.19
2023-11-18T06:17:59.567Z,6.15
2023-11-18T06:18:59.432Z,6.13
2023-11-18T06:19:59.426Z,6.16
2023-11-18T06:20:59.404Z,6.16
2023-11-18T06:21:59.296Z,6.16
2023-11-18T06:22:59.288Z,6.17
2023-11-18T06:23:59.205Z,6.19
2023-11-18T06:24:59.162Z,6.17
2023-11-18T06:25:59.127Z,6.20
2023-11-18T06:26:59.066Z,6.26
2023-11-18T06:27:59.013Z,6.26
2023-11-18T06:28:59.028Z,6.26
2023-11-18T06:29:58.923Z,6.29
2023-11-18T06:30:58.873Z,6.25
2023-11-18T06:31:58.882Z,6.34
2023-11-18T06:32:58.869Z,6.19
2023-11-18T06:33:58.788Z,6.26
2023-11-18T06:34:58.725Z,6.29
2023-11-18T06:35:58.640Z,6.20
2023-11-18T06:36:58.616Z,6.26
2023-11-18T06:37:58.569Z,6.25
2023-11-18T06:38:58.495Z,6.41
2023-11-18T06:39:58.459Z,6.39
2023-11-18T06:40:58.467Z,6.39
2023-11-18T06:41:58.446Z,6.32
2023-11-18T06:42:58.310Z,6.41
2023-11-18T06:43:58.920Z,6.41
2023-11-18T06:45:00.835Z,6.44
2023-11-18T06:45:58.173Z,6.41
2023-11-18T06:46:58.219Z,6.43
2023-11-18T06:47:58.171Z,6.47
2023-11-18T06:48:58.035Z,6.50
2023-11-18T06:49:58.040Z,6.50
2023-11-18T06:50:57.936Z,6.39
2023-11-18T06:51:57.895Z,6.52
2023-11-18T06:52:57.872Z,6.46
2023-11-18T06:53:57.807Z,6.50
2023-11-18T06:54:57.755Z,6.47
2023-11-18T06:55:57.721Z,6.57
2023-11-18T06:56:57.669Z,6.38
2023-11-18T06:57:57.641Z,6.49
2023-11-18T06:58:57.568Z,6.52
2023-11-18T06:59:57.517Z,6.57
2023-11-18T07:00:57.558Z,6.50
2023-11-18T07:01:57.459Z,6.52
2023-11-18T07:03:49.931Z,6.52
2023-11-18T07:04:49.729Z,6.59
2023-11-18T07:05:49.703Z,6.57
2023-11-18T07:06:49.625Z,6.59
2023-11-18T07:07:49.609Z,6.62
2023-11-18T07:08:49.587Z,6.60
2023-11-18T07:09:52.456Z,6.68
